sensor_id;sensor_type;location;lat;lon;timestamp;pressure;altitude;pressure_sealevel;temperature;humidity
17260;BME280;8746;49.230;9.220;2024-03-17T00:02:16;100669.56;;;5.99;100.00
17260;BME280;8746;49.230;9.220;2024-03-17T00:04:42;100663.44;;;5.92;100.00
17260;BME280;8746;49.230;9.220;2024-03-17T00:07:07;100670.47;;;5.91;100.00
17260;BME280;8746;49.230;9.220;2024-03-17T00:09:33;100662.63;;;5.88;100.00
17260;BME280;8746;49.230;9.220;2024-03-17T00:11:58;100673.94;;;5.92;100.00
17260;BME280;8746;49.230;9.220;2024-03-17T00:14:25;100665.09;;;6.05;100.00
17260;BME280;8746;49.230;9.220;2024-03-17T00:16:52;100668.66;;;6.01;100.00
17260;BME280;8746;49.230;9.220;2024-03-17T00:19:17;100667.78;;;6.01;100.00
17260;BME280;8746;49.230;9.220;2024-03-17T00:21:43;100666.00;;;6.03;100.00
17260;BME280;8746;49.230;9.220;2024-03-17T00:24:09;100667.91;;;5.82;100.00
17260;BME280;8746;49.230;9.220;2024-03-17T00:26:35;100669.72;;;5.77;100.00
17260;BME280;8746;49.230;9.220;2024-03-17T00:29:00;100667.22;;;5.60;100.00
17260;BME280;8746;49.230;9.220;2024-03-17T00:31:25;100663.69;;;5.66;100.00
17260;BME280;8746;49.230;9.220;2024-03-17T00:33:54;100665.53;;;5.53;100.00
17260;BME280;8746;49.230;9.220;2024-03-17T00:36:19;100662.03;;;5.54;100.00
17260;BME280;8746;49.230;9.220;2024-03-17T00:38:45;100655.13;;;5.46;100.00
17260;BME280;8746;49.230;9.220;2024-03-17T00:41:11;100654.22;;;5.49;100.00
17260;BME280;8746;49.230;9.220;2024-03-17T00:43:36;100646.41;;;5.46;100.00
17260;BME280;8746;49.230;9.220;2024-03-17T00:46:03;100641.25;;;5.38;100.00
17260;BME280;8746;49.230;9.220;2024-03-17T00:48:28;100647.34;;;5.39;100.00
17260;BME280;8746;49.230;9.220;2024-03-17T00:50:57;100642.16;;;5.33;100.00
17260;BME280;8746;49.230;9.220;2024-03-17T00:53:24;100635.22;;;5.27;100.00
17260;BME280;8746;49.230;9.220;2024-03-17T00:55:53;100624.78;;;5.22;100.00
17260;BME280;8746;49.230;9.220;2024-03-17T00:58:20;100635.34;;;5.07;100.00
17260;BME280;8746;49.230;9.220;2024-03-17T01:00:46;100636.22;;;5.07;100.00
17260;BME280;8746;49.230;9.220;2024-03-17T01:03:13;100626.63;;;5.08;100.00
17260;BME280;8746;49.230;9.220;2024-03-17T01:05:39;100617.03;;;5.08;100.00
17260;BME280;8746;49.230;9.220;2024-03-17T01:08:08;100617.00;;;5.10;100.00
17260;BME280;8746;49.230;9.220;2024-03-17T01:10:37;100624.81;;;5.16;100.00
17260;BME280;8746;49.230;9.220;2024-03-17T01:13:03;100614.38;;;5.13;100.00
17260;BME280;8746;49.230;9.220;2024-03-17T01:15:28;100617.84;;;5.18;100.00
17260;BME280;8746;49.230;9.220;2024-03-17T01:17:53;100619.53;;;5.28;100.00
17260;BME280;8746;49.230;9.220;2024-03-17T01:20:19;100615.16;;;5.27;100.00
17260;BME280;8746;49.230;9.220;2024-03-17T01:22:44;100608.19;;;5.23;100.00
17260;BME280;8746;49.230;9.220;2024-03-17T01:25:09;100613.47;;;5.17;100.00
17260;BME280;8746;49.230;9.220;2024-03-17T01:27:35;100603.00;;;5.17;100.00
17260;BME280;8746;49.230;9.220;2024-03-17T01:30:00;100605.59;;;5.25;100.00
17260;BME280;8746;49.230;9.220;2024-03-17T01:32:26;100599.50;;;5.20;100.00
17260;BME280;8746;49.230;9.220;2024-03-17T01:34:51;100596.03;;;5.19;100.00
17260;BME280;8746;49.230;9.220;2024-03-17T01:37:16;100591.72;;;5.09;100.00
17260;BME280;8746;49.230;9.220;2024-03-17T01:39:42;100593.56;;;5.01;100.00
17260;BME280;8746;49.230;9.220;2024-03-17T01:42:07;100592.72;;;4.97;100.00
17260;BME280;8746;49.230;9.220;2024-03-17T01:44:33;100590.13;;;4.91;100.00
17260;BME280;8746;49.230;9.220;2024-03-17T01:46:58;100590.09;;;4.94;100.00
17260;BME280;8746;49.230;9.220;2024-03-17T01:49:26;100589.25;;;4.93;100.00
17260;BME280;8746;49.230;9.220;2024-03-17T01:51:53;100587.53;;;4.91;100.00
17260;BME280;8746;49.230;9.220;2024-03-17T01:54:19;100582.28;;;4.91;100.00
17260;BME280;8746;49.230;9.220;2024-03-17T01:56:44;100587.56;;;4.85;100.00
17260;BME280;8746;49.230;9.220;2024-03-17T01:59:10;100588.47;;;4.79;100.00
17260;BME280;8746;49.230;9.220;2024-03-17T02:01:38;100589.34;;;4.73;100.00
17260;BME280;8746;49.230;9.220;2024-03-17T02:04:05;100585.88;;;4.70;100.00
17260;BME280;8746;49.230;9.220;2024-03-17T02:06:30;100585.88;;;4.70;100.00
17260;BME280;8746;49.230;9.220;2024-03-17T02:08:56;100591.97;;;4.75;100.00
17260;BME280;8746;49.230;9.220;2024-03-17T02:11:29;100581.53;;;4.75;100.00
17260;BME280;8746;49.230;9.220;2024-03-17T02:13:56;100585.94;;;4.65;100.00
17260;BME280;8746;49.230;9.220;2024-03-17T02:16:24;100591.19;;;4.56;100.00
17260;BME280;8746;49.230;9.220;2024-03-17T02:18:56;100593.81;;;4.54;100.00
17260;BME280;8746;49.230;9.220;2024-03-17T02:21:22;100585.13;;;4.52;100.00
17260;BME280;8746;49.230;9.220;2024-03-17T02:23:48;100577.28;;;4.52;100.00
17260;BME280;8746;49.230;9.220;2024-03-17T02:26:14;100581.66;;;4.48;100.00
17260;BME280;8746;49.230;9.220;2024-03-17T02:28:41;100568.59;;;4.44;100.00
17260;BME280;8746;49.230;9.220;2024-03-17T02:31:09;100569.53;;;4.38;100.00
17260;BME280;8746;49.230;9.220;2024-03-17T02:33:35;100571.28;;;4.35;100.00
17260;BME280;8746;49.230;9.220;2024-03-17T02:36:01;100566.06;;;4.35;100.00
17260;BME280;8746;49.230;9.220;2024-03-17T02:38:29;100567.78;;;4.36;100.00
17260;BME280;8746;49.230;9.220;2024-03-17T02:41:15;100566.91;;;4.38;100.00
17260;BME280;8746;49.230;9.220;2024-03-17T02:43:41;100570.38;;;4.34;100.00
17260;BME280;8746;49.230;9.220;2024-03-17T02:46:06;100564.31;;;4.29;100.00
17260;BME280;8746;49.230;9.220;2024-03-17T02:48:33;100567.81;;;4.26;100.00
17260;BME280;8746;49.230;9.220;2024-03-17T02:50:58;100566.94;;;4.32;100.00
17260;BME280;8746;49.230;9.220;2024-03-17T02:53:23;100566.94;;;4.32;100.00
17260;BME280;8746;49.230;9.220;2024-03-17T02:55:49;100564.28;;;4.37;100.00
17260;BME280;8746;49.230;9.220;2024-03-17T02:58:14;100564.28;;;4.35;100.00
17260;BME280;8746;49.230;9.220;2024-03-17T03:00:41;100558.19;;;4.36;100.00
17260;BME280;8746;49.230;9.220;2024-03-17T03:03:06;100552.13;;;4.36;100.00
17260;BME280;8746;49.230;9.220;2024-03-17T03:05:31;100553.81;;;4.37;100.00
17260;BME280;8746;49.230;9.220;2024-03-17T03:07:57;100559.97;;;4.26;100.00
17260;BME280;8746;49.230;9.220;2024-03-17T03:10:23;100556.50;;;4.24;100.00
17260;BME280;8746;49.230;9.220;2024-03-17T03:12:48;100558.28;;;4.19;100.00
17260;BME280;8746;49.230;9.220;2024-03-17T03:15:13;100562.69;;;4.08;100.00
17260;BME280;8746;49.230;9.220;2024-03-17T03:17:38;100561.81;;;4.01;100.00
17260;BME280;8746;49.230;9.220;2024-03-17T03:20:04;100566.16;;;4.04;100.00
17260;BME280;8746;49.230;9.220;2024-03-17T03:22:31;100558.34;;;4.02;100.00
17260;BME280;8746;49.230;9.220;2024-03-17T03:24:56;100554.00;;;3.99;100.00
17260;BME280;8746;49.230;9.220;2024-03-17T03:27:21;100558.34;;;4.02;100.00
17260;BME280;8746;49.230;9.220;2024-03-17T03:29:47;100557.47;;;3.98;100.00
17260;BME280;8746;49.230;9.220;2024-03-17T03:32:13;100557.44;;;4.05;100.00
17260;BME280;8746;49.230;9.220;2024-03-17T03:34:38;100559.22;;;4.03;100.00
17260;BME280;8746;49.230;9.220;2024-03-17T03:37:04;100553.13;;;4.05;100.00
17260;BME280;8746;49.230;9.220;2024-03-17T03:39:32;100560.97;;;4.00;100.00
17260;BME280;8746;49.230;9.220;2024-03-17T03:41:57;100561.84;;;3.96;100.00
17260;BME280;8746;49.230;9.220;2024-03-17T03:44:23;100558.38;;;3.91;100.00
17260;BME280;8746;49.230;9.220;2024-03-17T03:46:48;100560.13;;;3.91;100.00
17260;BME280;8746;49.230;9.220;2024-03-17T03:49:14;100554.91;;;3.91;100.00
17260;BME280;8746;49.230;9.220;2024-03-17T03:51:39;100551.44;;;3.87;100.00
17260;BME280;8746;49.230;9.220;2024-03-17T03:54:05;100552.31;;;3.89;100.00
17260;BME280;8746;49.230;9.220;2024-03-17T03:56:32;100555.78;;;3.85;100.00
17260;BME280;8746;49.230;9.220;2024-03-17T03:58:58;100561.88;;;3.85;100.00
17260;BME280;8746;49.230;9.220;2024-03-17T04:01:23;100550.56;;;3.83;100.00
17260;BME280;8746;49.230;9.220;2024-03-17T04:03:49;100554.03;;;3.82;100.00
17260;BME280;8746;49.230;9.220;2024-03-17T04:06:15;100561.88;;;3.87;100.00
17260;BME280;8746;49.230;9.220;2024-03-17T04:08:41;100562.72;;;3.86;100.00
17260;BME280;8746;49.230;9.220;2024-03-17T04:11:07;100557.53;;;3.80;100.00
17260;BME280;8746;49.230;9.220;2024-03-17T04:13:33;100562.75;;;3.80;100.00
17260;BME280;8746;49.230;9.220;2024-03-17T04:15:59;100557.53;;;3.83;100.00
17260;BME280;8746;49.230;9.220;2024-03-17T04:18:26;100565.38;;;3.78;100.00
17260;BME280;8746;49.230;9.220;2024-03-17T04:20:56;100565.34;;;3.77;100.00
17260;BME280;8746;49.230;9.220;2024-03-17T04:23:22;100564.50;;;3.81;100.00
17260;BME280;8746;49.230;9.220;2024-03-17T04:25:50;100565.34;;;3.84;100.00
17260;BME280;8746;49.230;9.220;2024-03-17T04:28:16;100561.88;;;3.82;100.00
17260;BME280;8746;49.230;9.220;2024-03-17T04:30:41;100569.69;;;3.84;100.00
17260;BME280;8746;49.230;9.220;2024-03-17T04:33:08;100562.75;;;3.80;100.00
17260;BME280;8746;49.230;9.220;2024-03-17T04:35:39;100565.38;;;3.72;100.00
17260;BME280;8746;49.230;9.220;2024-03-17T04:38:05;100561.06;;;3.69;100.00
17260;BME280;8746;49.230;9.220;2024-03-17T04:40:34;100570.63;;;3.67;100.00
17260;BME280;8746;49.230;9.220;2024-03-17T04:43:00;100564.53;;;3.68;100.00
17260;BME280;8746;49.230;9.220;2024-03-17T04:45:25;100568.00;;;3.64;100.00
17260;BME280;8746;49.230;9.220;2024-03-17T04:47:51;100561.94;;;3.58;100.00
17260;BME280;8746;49.230;9.220;2024-03-17T04:50:16;100559.34;;;3.50;100.00
17260;BME280;8746;49.230;9.220;2024-03-17T04:52:42;100561.06;;;3.48;100.00
17260;BME280;8746;49.230;9.220;2024-03-17T04:55:07;100568.03;;;3.46;100.00
17260;BME280;8746;49.230;9.220;2024-03-17T04:57:33;100556.72;;;3.37;100.00
17260;BME280;8746;49.230;9.220;2024-03-17T04:59:58;100557.63;;;3.30;100.00
17260;BME280;8746;49.230;9.220;2024-03-17T05:02:24;100556.75;;;3.28;100.00
17260;BME280;8746;49.230;9.220;2024-03-17T05:04:50;100557.63;;;3.30;100.00
17260;BME280;8746;49.230;9.220;2024-03-17T05:07:15;100555.00;;;3.29;100.00
17260;BME280;8746;49.230;9.220;2024-03-17T05:09:41;100557.59;;;3.24;100.00
17260;BME280;8746;49.230;9.220;2024-03-17T05:12:07;100561.09;;;3.29;100.00
17260;BME280;8746;49.230;9.220;2024-03-17T05:14:32;100554.97;;;3.24;100.00
17260;BME280;8746;49.230;9.220;2024-03-17T05:16:57;100554.13;;;3.25;100.00
17260;BME280;8746;49.230;9.220;2024-03-17T05:19:23;100554.13;;;3.31;100.00
17260;BME280;8746;49.230;9.220;2024-03-17T05:21:48;100556.75;;;3.27;100.00
17260;BME280;8746;49.230;9.220;2024-03-17T05:24:14;100548.91;;;3.13;100.00
17260;BME280;8746;49.230;9.220;2024-03-17T05:26:39;100547.19;;;3.07;100.00
17260;BME280;8746;49.230;9.220;2024-03-17T05:29:05;100548.06;;;3.08;100.00
17260;BME280;8746;49.230;9.220;2024-03-17T05:31:30;100541.97;;;2.99;100.00
17260;BME280;8746;49.230;9.220;2024-03-17T05:33:57;100551.50;;;2.96;100.00
17260;BME280;8746;49.230;9.220;2024-03-17T05:36:22;100550.66;;;2.95;100.00
17260;BME280;8746;49.230;9.220;2024-03-17T05:38:47;100554.16;;;3.03;100.00
17260;BME280;8746;49.230;9.220;2024-03-17T05:41:13;100558.47;;;2.98;100.00
17260;BME280;8746;49.230;9.220;2024-03-17T05:43:39;100563.69;;;2.98;100.00
17260;BME280;8746;49.230;9.220;2024-03-17T05:46:06;100561.94;;;3.07;100.00
17260;BME280;8746;49.230;9.220;2024-03-17T05:48:33;100562.81;;;3.10;100.00
17260;BME280;8746;49.230;9.220;2024-03-17T05:51:01;100562.81;;;3.12;100.00
17260;BME280;8746;49.230;9.220;2024-03-17T05:53:27;100561.97;;;3.11;100.00
17260;BME280;8746;49.230;9.220;2024-03-17T05:55:53;100562.81;;;3.05;100.00
17260;BME280;8746;49.230;9.220;2024-03-17T05:58:18;100569.78;;;3.07;100.00
17260;BME280;8746;49.230;9.220;2024-03-17T06:00:44;100562.84;;;3.15;100.00
17260;BME280;8746;49.230;9.220;2024-03-17T06:03:10;100556.75;;;3.10;100.00
17260;BME280;8746;49.230;9.220;2024-03-17T06:05:36;100557.63;;;3.09;100.00
17260;BME280;8746;49.230;9.220;2024-03-17T06:08:04;100561.09;;;3.17;100.00
17260;BME280;8746;49.230;9.220;2024-03-17T06:10:31;100562.81;;;3.23;100.00
17260;BME280;8746;49.230;9.220;2024-03-17T06:12:57;100559.38;;;3.27;100.00
17260;BME280;8746;49.230;9.220;2024-03-17T06:15:23;100562.84;;;3.36;100.00
17260;BME280;8746;49.230;9.220;2024-03-17T06:17:49;100569.78;;;3.50;100.00
17260;BME280;8746;49.230;9.220;2024-03-17T06:20:17;100568.88;;;3.56;100.00
17260;BME280;8746;49.230;9.220;2024-03-17T06:22:42;100561.03;;;3.76;100.00
17260;BME280;8746;49.230;9.220;2024-03-17T06:25:08;100559.25;;;3.78;100.00
17260;BME280;8746;49.230;9.220;2024-03-17T06:27:33;100562.75;;;3.75;100.00
17260;BME280;8746;49.230;9.220;2024-03-17T06:29:59;100562.75;;;3.77;100.00
17260;BME280;8746;49.230;9.220;2024-03-17T06:32:29;100560.97;;;3.87;100.00
17260;BME280;8746;49.230;9.220;2024-03-17T06:34:55;100561.00;;;3.88;100.00
17260;BME280;8746;49.230;9.220;2024-03-17T06:37:21;100559.28;;;3.85;100.00
17260;BME280;8746;49.230;9.220;2024-03-17T06:39:47;100562.72;;;3.92;100.00
17260;BME280;8746;49.230;9.220;2024-03-17T06:42:12;100554.88;;;3.97;100.00
17260;BME280;8746;49.230;9.220;2024-03-17T06:44:37;100552.22;;;4.09;100.00
17260;BME280;8746;49.230;9.220;2024-03-17T06:47:05;100554.81;;;4.15;100.00
17260;BME280;8746;49.230;9.220;2024-03-17T06:49:30;100551.28;;;4.23;100.00
17260;BME280;8746;49.230;9.220;2024-03-17T06:51:56;100555.63;;;4.27;100.00
17260;BME280;8746;49.230;9.220;2024-03-17T06:54:21;100548.59;;;4.37;100.00
17260;BME280;8746;49.230;9.220;2024-03-17T06:56:47;100548.56;;;4.43;100.00
17260;BME280;8746;49.230;9.220;2024-03-17T06:59:12;100545.91;;;4.54;100.00
17260;BME280;8746;49.230;9.220;2024-03-17T07:01:37;100541.53;;;4.60;100.00
17260;BME280;8746;49.230;9.220;2024-03-17T07:04:03;100547.53;;;4.72;100.00
17260;BME280;8746;49.230;9.220;2024-03-17T07:06:28;100537.84;;;4.89;100.00
17260;BME280;8746;49.230;9.220;2024-03-17T07:08:54;100546.47;;;5.02;100.00
17260;BME280;8746;49.230;9.220;2024-03-17T07:11:20;100543.75;;;5.14;100.00
17260;BME280;8746;49.230;9.220;2024-03-17T07:13:49;100540.19;;;5.23;100.00
17260;BME280;8746;49.230;9.220;2024-03-17T07:16:16;100547.13;;;5.29;100.00
17260;BME280;8746;49.230;9.220;2024-03-17T07:18:41;100553.06;;;5.45;100.00
17260;BME280;8746;49.230;9.220;2024-03-17T07:21:08;100552.09;;;5.57;100.00
17260;BME280;8746;49.230;9.220;2024-03-17T07:23:35;100539.00;;;5.55;100.00
17260;BME280;8746;49.230;9.220;2024-03-17T07:26:02;100546.69;;;5.72;100.00
17260;BME280;8746;49.230;9.220;2024-03-17T07:28:28;100536.03;;;5.89;100.00
17260;BME280;8746;49.230;9.220;2024-03-17T07:30:55;100534.31;;;5.90;100.00
17260;BME280;8746;49.230;9.220;2024-03-17T07:33:21;100537.81;;;5.89;100.00
17260;BME280;8746;49.230;9.220;2024-03-17T07:35:51;100532.34;;;6.11;100.00
17260;BME280;8746;49.230;9.220;2024-03-17T07:38:17;100537.59;;;6.11;100.00
17260;BME280;8746;49.230;9.220;2024-03-17T07:40:44;100536.66;;;6.15;100.00
17260;BME280;8746;49.230;9.220;2024-03-17T07:43:09;100545.34;;;6.18;100.00
17260;BME280;8746;49.230;9.220;2024-03-17T07:45:35;100533.78;;;6.33;100.00
17260;BME280;8746;49.230;9.220;2024-03-17T07:48:00;100539.06;;;6.32;100.00
17260;BME280;8746;49.230;9.220;2024-03-17T07:50:26;100531.72;;;6.55;100.00
17260;BME280;8746;49.230;9.220;2024-03-17T07:52:52;100540.50;;;6.53;100.00
17260;BME280;8746;49.230;9.220;2024-03-17T07:55:17;100542.25;;;6.54;100.00
17260;BME280;8746;49.230;9.220;2024-03-17T07:57:43;100538.69;;;6.60;100.00
17260;BME280;8746;49.230;9.220;2024-03-17T08:00:08;100534.25;;;6.65;100.00
17260;BME280;8746;49.230;9.220;2024-03-17T08:02:49;100525.06;;;6.94;100.00
17260;BME280;8746;49.230;9.220;2024-03-17T08:05:15;100527.69;;;6.92;100.00
17260;BME280;8746;49.230;9.220;2024-03-17T08:07:40;100530.31;;;6.94;100.00
17260;BME280;8746;49.230;9.220;2024-03-17T08:10:07;100525.00;;;6.97;100.00
17260;BME280;8746;49.230;9.220;2024-03-17T08:12:33;100521.34;;;7.09;100.00
17260;BME280;8746;49.230;9.220;2024-03-17T08:14:58;100525.31;;;7.31;100.00
17260;BME280;8746;49.230;9.220;2024-03-17T08:17:25;100519.94;;;7.37;100.00
17260;BME280;8746;49.230;9.220;2024-03-17T08:19:50;100515.94;;;7.66;100.00
17260;BME280;8746;49.230;9.220;2024-03-17T08:22:15;100497.47;;;7.71;100.00
17260;BME280;8746;49.230;9.220;2024-03-17T08:24:40;100505.34;;;7.71;100.00
17260;BME280;8746;49.230;9.220;2024-03-17T08:27:06;100505.81;;;7.92;100.00
17260;BME280;8746;49.230;9.220;2024-03-17T08:29:31;100514.47;;;7.97;100.00
17260;BME280;8746;49.230;9.220;2024-03-17T08:31:58;100514.16;;;8.12;100.00
17260;BME280;8746;49.230;9.220;2024-03-17T08:34:24;100513.22;;;8.15;100.00
17260;BME280;8746;49.230;9.220;2024-03-17T08:36:49;100510.78;;;8.48;100.00
17260;BME280;8746;49.230;9.220;2024-03-17T08:39:15;100527.63;;;8.38;100.00
17260;BME280;8746;49.230;9.220;2024-03-17T08:41:40;100524.84;;;8.47;100.00
17260;BME280;8746;49.230;9.220;2024-03-17T08:44:05;100527.66;;;8.77;100.00
17260;BME280;8746;49.230;9.220;2024-03-17T08:46:31;100522.22;;;8.85;100.00
17260;BME280;8746;49.230;9.220;2024-03-17T08:48:57;100521.44;;;8.81;100.00
17260;BME280;8746;49.230;9.220;2024-03-17T08:51:23;100512.44;;;8.90;100.00
17260;BME280;8746;49.230;9.220;2024-03-17T08:53:49;100514.03;;;8.97;100.00
17260;BME280;8746;49.230;9.220;2024-03-17T08:56:14;100509.47;;;9.04;100.00
17260;BME280;8746;49.230;9.220;2024-03-17T08:58:39;100503.25;;;9.08;100.00
17260;BME280;8746;49.230;9.220;2024-03-17T09:01:06;100504.56;;;9.24;100.00
17260;BME280;8746;49.230;9.220;2024-03-17T09:03:32;100500.50;;;9.45;100.00
17260;BME280;8746;49.230;9.220;2024-03-17T09:05:58;100495.63;;;9.65;100.00
17260;BME280;8746;49.230;9.220;2024-03-17T09:08:24;100496.22;;;9.74;100.00
17260;BME280;8746;49.230;9.220;2024-03-17T09:10:51;100489.53;;;9.94;100.00
17260;BME280;8746;49.230;9.220;2024-03-17T09:13:22;100487.31;;;9.78;100.00
17260;BME280;8746;49.230;9.220;2024-03-17T09:16:01;100486.34;;;10.13;100.00
17260;BME280;8746;49.230;9.220;2024-03-17T09:18:27;100490.34;;;9.96;100.00
17260;BME280;8746;49.230;9.220;2024-03-17T09:23:25;100493.53;;;10.07;100.00
17260;BME280;8746;49.230;9.220;2024-03-17T09:26:01;100484.94;;;10.31;100.00
17260;BME280;8746;49.230;9.220;2024-03-17T09:28:29;100484.78;;;10.35;100.00
17260;BME280;8746;49.230;9.220;2024-03-17T09:30:55;100485.03;;;10.57;100.00
17260;BME280;8746;49.230;9.220;2024-03-17T09:33:22;100480.03;;;10.48;100.00
17260;BME280;8746;49.230;9.220;2024-03-17T09:36:04;100474.41;;;10.59;100.00
17260;BME280;8746;49.230;9.220;2024-03-17T09:38:31;100477.16;;;10.56;100.00
17260;BME280;8746;49.230;9.220;2024-03-17T09:40:57;100462.88;;;10.62;100.00
17260;BME280;8746;49.230;9.220;2024-03-17T09:43:24;100471.78;;;10.86;100.00
17260;BME280;8746;49.230;9.220;2024-03-17T09:45:50;100470.19;;;11.07;100.00
17260;BME280;8746;49.230;9.220;2024-03-17T09:48:19;100469.13;;;11.13;99.86
17260;BME280;8746;49.230;9.220;2024-03-17T09:50:50;100473.47;;;11.41;98.99
17260;BME280;8746;49.230;9.220;2024-03-17T09:53:17;100465.69;;;10.84;97.97
17260;BME280;8746;49.230;9.220;2024-03-17T09:55:43;100473.91;;;11.28;96.27
17260;BME280;8746;49.230;9.220;2024-03-17T09:58:16;100469.34;;;11.57;96.96
17260;BME280;8746;49.230;9.220;2024-03-17T10:00:43;100461.78;;;11.48;96.49
17260;BME280;8746;49.230;9.220;2024-03-17T10:03:08;100465.81;;;11.33;100.00
17260;BME280;8746;49.230;9.220;2024-03-17T10:05:33;100460.56;;;11.57;99.78
17260;BME280;8746;49.230;9.220;2024-03-17T10:07:59;100456.63;;;11.68;96.01
17260;BME280;8746;49.230;9.220;2024-03-17T10:10:24;100455.66;;;11.71;96.21
17260;BME280;8746;49.230;9.220;2024-03-17T10:12:51;100461.25;;;11.87;93.97
17260;BME280;8746;49.230;9.220;2024-03-17T10:15:17;100451.13;;;12.22;95.35
17260;BME280;8746;49.230;9.220;2024-03-17T10:17:43;100455.25;;;12.29;92.72
17260;BME280;8746;49.230;9.220;2024-03-17T10:25:26;100446.88;;;12.62;91.64
17260;BME280;8746;49.230;9.220;2024-03-17T10:27:53;100444.88;;;12.47;91.50
17260;BME280;8746;49.230;9.220;2024-03-17T10:30:19;100440.59;;;12.87;93.85
17260;BME280;8746;49.230;9.220;2024-03-17T10:32:54;100439.75;;;13.28;91.86
17260;BME280;8746;49.230;9.220;2024-03-17T10:35:29;100443.47;;;13.24;91.41
17260;BME280;8746;49.230;9.220;2024-03-17T10:37:57;100449.88;;;13.59;87.03
17260;BME280;8746;49.230;9.220;2024-03-17T10:40:24;100445.91;;;13.49;85.95
17260;BME280;8746;49.230;9.220;2024-03-17T10:42:49;100455.25;;;13.17;82.58
17260;BME280;8746;49.230;9.220;2024-03-17T10:45:15;100456.34;;;12.90;82.27
17260;BME280;8746;49.230;9.220;2024-03-17T10:47:43;100465.63;;;12.58;81.64
17260;BME280;8746;49.230;9.220;2024-03-17T10:50:24;100456.84;;;12.78;80.18
17260;BME280;8746;49.230;9.220;2024-03-17T10:52:50;100459.63;;;12.75;82.44
17260;BME280;8746;49.230;9.220;2024-03-17T10:55:23;100459.06;;;13.09;76.88
17260;BME280;8746;49.230;9.220;2024-03-17T10:57:53;100458.13;;;13.53;76.76
17260;BME280;8746;49.230;9.220;2024-03-17T11:00:21;100450.66;;;13.61;77.24
17260;BME280;8746;49.230;9.220;2024-03-17T11:02:48;100447.28;;;13.98;76.64
17260;BME280;8746;49.230;9.220;2024-03-17T11:05:16;100440.97;;;14.00;75.75
17260;BME280;8746;49.230;9.220;2024-03-17T11:07:43;100439.94;;;13.65;75.08
17260;BME280;8746;49.230;9.220;2024-03-17T11:10:16;100440.72;;;13.86;76.60
17260;BME280;8746;49.230;9.220;2024-03-17T11:12:47;100439.53;;;13.93;71.05
17260;BME280;8746;49.230;9.220;2024-03-17T11:17:52;100439.81;;;14.06;69.91
17260;BME280;8746;49.230;9.220;2024-03-17T11:20:21;100443.19;;;13.90;71.11
17260;BME280;8746;49.230;9.220;2024-03-17T11:22:52;100430.47;;;14.16;71.46
17260;BME280;8746;49.230;9.220;2024-03-17T11:28:02;100423.97;;;14.60;68.45
17260;BME280;8746;49.230;9.220;2024-03-17T11:30:54;100424.03;;;14.58;66.64
17260;BME280;8746;49.230;9.220;2024-03-17T11:41:42;100411.19;;;14.32;64.68
17260;BME280;8746;49.230;9.220;2024-03-17T11:49:33;100408.03;;;14.23;63.90
17260;BME280;8746;49.230;9.220;2024-03-17T11:52:01;100404.28;;;14.64;60.57
17260;BME280;8746;49.230;9.220;2024-03-17T11:54:32;100406.06;;;14.46;60.87
17260;BME280;8746;49.230;9.220;2024-03-17T11:59:34;100394.44;;;14.49;61.81
17260;BME280;8746;49.230;9.220;2024-03-17T12:02:00;100393.88;;;14.42;61.94
17260;BME280;8746;49.230;9.220;2024-03-17T12:04:27;100392.38;;;14.00;64.12
17260;BME280;8746;49.230;9.220;2024-03-17T12:06:55;100392.59;;;14.32;61.33
17260;BME280;8746;49.230;9.220;2024-03-17T12:09:41;100395.44;;;14.09;60.40
17260;BME280;8746;49.230;9.220;2024-03-17T12:12:14;100382.59;;;14.19;60.78
17260;BME280;8746;49.230;9.220;2024-03-17T12:14:41;100379.94;;;14.19;63.92
17260;BME280;8746;49.230;9.220;2024-03-17T12:17:11;100379.47;;;14.29;61.40
17260;BME280;8746;49.230;9.220;2024-03-17T12:19:37;100376.09;;;14.25;62.75
17260;BME280;8746;49.230;9.220;2024-03-17T12:22:06;100385.03;;;14.05;64.16
17260;BME280;8746;49.230;9.220;2024-03-17T12:24:35;100384.81;;;13.90;62.95
17260;BME280;8746;49.230;9.220;2024-03-17T12:27:04;100376.56;;;14.16;62.71
17260;BME280;8746;49.230;9.220;2024-03-17T12:29:39;100376.63;;;14.14;60.03
17260;BME280;8746;49.230;9.220;2024-03-17T12:32:19;100383.19;;;14.07;63.68
17260;BME280;8746;49.230;9.220;2024-03-17T12:34:53;100376.16;;;14.06;61.32
17260;BME280;8746;49.230;9.220;2024-03-17T12:37:20;100376.94;;;13.89;63.82
17260;BME280;8746;49.230;9.220;2024-03-17T12:39:46;100375.72;;;13.77;63.91
17260;BME280;8746;49.230;9.220;2024-03-17T12:42:16;100369.34;;;14.00;62.75
17260;BME280;8746;49.230;9.220;2024-03-17T12:44:59;100372.31;;;14.31;61.41
17260;BME280;8746;49.230;9.220;2024-03-17T12:47:25;100363.09;;;14.01;58.69
17260;BME280;8746;49.230;9.220;2024-03-17T12:49:56;100360.34;;;14.22;60.67
17260;BME280;8746;49.230;9.220;2024-03-17T12:57:47;100354.09;;;13.86;59.63
17260;BME280;8746;49.230;9.220;2024-03-17T13:00:32;100345.84;;;13.73;57.93
17260;BME280;8746;49.230;9.220;2024-03-17T13:02:58;100345.84;;;13.92;59.40
17260;BME280;8746;49.230;9.220;2024-03-17T13:05:24;100342.63;;;13.67;60.72
17260;BME280;8746;49.230;9.220;2024-03-17T13:07:50;100335.16;;;13.75;61.58
17260;BME280;8746;49.230;9.220;2024-03-17T13:10:17;100343.53;;;13.85;59.55
17260;BME280;8746;49.230;9.220;2024-03-17T13:12:43;100336.53;;;13.65;61.52
17260;BME280;8746;49.230;9.220;2024-03-17T13:15:12;100341.03;;;13.82;60.29
17260;BME280;8746;49.230;9.220;2024-03-17T13:17:38;100329.72;;;13.40;59.42
17260;BME280;8746;49.230;9.220;2024-03-17T13:20:05;100333.47;;;13.34;59.47
17260;BME280;8746;49.230;9.220;2024-03-17T13:22:34;100333.75;;;13.49;59.96
17260;BME280;8746;49.230;9.220;2024-03-17T13:25:00;100328.94;;;13.17;58.95
17260;BME280;8746;49.230;9.220;2024-03-17T13:27:25;100331.88;;;13.51;62.03
17260;BME280;8746;49.230;9.220;2024-03-17T13:29:50;100328.00;;;13.58;63.32
17260;BME280;8746;49.230;9.220;2024-03-17T13:32:16;100327.13;;;13.38;61.81
17260;BME280;8746;49.230;9.220;2024-03-17T13:34:44;100325.88;;;13.47;63.61